sensor_id;sensor_type;location;lat;lon;timestamp;pressure;altitude;pressure_sealevel;temperature;humidity
8697;BME280;4385;48.848;8.924;2023-11-22T00:00:35;97713.94;;;19.19;100.00
8697;BME280;4385;48.848;8.924;2023-11-22T00:03:00;97701.19;;;19.17;100.00
8697;BME280;4385;48.848;8.924;2023-11-22T00:05:25;97711.41;;;19.17;100.00
8697;BME280;4385;48.848;8.924;2023-11-22T00:07:50;97713.13;;;19.17;100.00
8697;BME280;4385;48.848;8.924;2023-11-22T00:10:16;97712.28;;;19.15;100.00
8697;BME280;4385;48.848;8.924;2023-11-22T00:12:41;97710.56;;;19.17;100.00
8697;BME280;4385;48.848;8.924;2023-11-22T00:15:07;97714.06;;;19.13;100.00
8697;BME280;4385;48.848;8.924;2023-11-22T00:17:34;97720.91;;;19.11;100.00
8697;BME280;4385;48.848;8.924;2023-11-22T00:20:00;97724.34;;;19.10;100.00
8697;BME280;4385;48.848;8.924;2023-11-22T00:22:28;97723.50;;;19.07;100.00
8697;BME280;4385;48.848;8.924;2023-11-22T00:24:53;97734.59;;;19.06;100.00
8697;BME280;4385;48.848;8.924;2023-11-22T00:27:19;97740.59;;;19.04;100.00
8697;BME280;4385;48.848;8.924;2023-11-22T00:29:44;97740.66;;;19.01;100.00
8697;BME280;4385;48.848;8.924;2023-11-22T00:32:09;97757.69;;;19.00;100.00
8697;BME280;4385;48.848;8.924;2023-11-22T00:34:34;97751.78;;;18.98;100.00
8697;BME280;4385;48.848;8.924;2023-11-22T00:37:00;97756.94;;;18.95;100.00
8697;BME280;4385;48.848;8.924;2023-11-22T00:39:25;97763.78;;;18.93;100.00
8697;BME280;4385;48.848;8.924;2023-11-22T00:41:50;97767.28;;;18.89;100.00
8697;BME280;4385;48.848;8.924;2023-11-22T00:44:15;97759.69;;;18.86;100.00
8697;BME280;4385;48.848;8.924;2023-11-22T00:46:41;97758.84;;;18.84;100.00
8697;BME280;4385;48.848;8.924;2023-11-22T00:49:07;97759.75;;;18.82;100.00
8697;BME280;4385;48.848;8.924;2023-11-22T00:51:33;97759.75;;;18.82;100.00
8697;BME280;4385;48.848;8.924;2023-11-22T00:53:59;97765.72;;;18.81;100.00
8697;BME280;4385;48.848;8.924;2023-11-22T00:56:25;97776.72;;;18.84;100.00
8697;BME280;4385;48.848;8.924;2023-11-22T00:58:51;97775.88;;;18.85;100.00
8697;BME280;4385;48.848;8.924;2023-11-22T01:01:18;97786.06;;;18.86;100.00
8697;BME280;4385;48.848;8.924;2023-11-22T01:03:43;97782.63;;;18.87;100.00
8697;BME280;4385;48.848;8.924;2023-11-22T01:06:09;97787.72;;;18.89;100.00
8697;BME280;4385;48.848;8.924;2023-11-22T01:08:35;97784.28;;;18.90;100.00
8697;BME280;4385;48.848;8.924;2023-11-22T01:11:00;97783.41;;;18.91;100.00
8697;BME280;4385;48.848;8.924;2023-11-22T01:13:27;97788.50;;;18.92;100.00
8697;BME280;4385;48.848;8.924;2023-11-22T01:15:52;97791.88;;;18.93;100.00
8697;BME280;4385;48.848;8.924;2023-11-22T01:18:19;97798.69;;;18.94;100.00
8697;BME280;4385;48.848;8.924;2023-11-22T01:20:45;97793.56;;;18.94;100.00
8697;BME280;4385;48.848;8.924;2023-11-22T01:23:10;97802.06;;;18.94;100.00
8697;BME280;4385;48.848;8.924;2023-11-22T01:25:35;97802.06;;;18.94;100.00
8697;BME280;4385;48.848;8.924;2023-11-22T01:28:00;97799.47;;;18.96;100.00
8697;BME280;4385;48.848;8.924;2023-11-22T01:30:26;97804.63;;;18.93;100.00
8697;BME280;4385;48.848;8.924;2023-11-22T01:32:53;97808.97;;;18.91;100.00
8697;BME280;4385;48.848;8.924;2023-11-22T01:35:20;97807.25;;;18.90;100.00
8697;BME280;4385;48.848;8.924;2023-11-22T01:37:45;97816.69;;;18.88;100.00
8697;BME280;4385;48.848;8.924;2023-11-22T01:40:11;97813.31;;;18.86;100.00
8697;BME280;4385;48.848;8.924;2023-11-22T01:42:36;97810.78;;;18.84;100.00
8697;BME280;4385;48.848;8.924;2023-11-22T01:45:05;97815.09;;;18.80;100.00
8697;BME280;4385;48.848;8.924;2023-11-22T01:47:30;97817.69;;;18.77;100.00
8697;BME280;4385;48.848;8.924;2023-11-22T01:49:56;97822.84;;;18.74;100.00
8697;BME280;4385;48.848;8.924;2023-11-22T01:52:22;97833.94;;;18.73;100.00
8697;BME280;4385;48.848;8.924;2023-11-22T01:54:47;97836.56;;;18.70;100.00
8697;BME280;4385;48.848;8.924;2023-11-22T01:57:14;97838.28;;;18.68;100.00
8697;BME280;4385;48.848;8.924;2023-11-22T01:59:39;97841.75;;;18.64;100.00
8697;BME280;4385;48.848;8.924;2023-11-22T02:02:05;97849.47;;;18.61;100.00
8697;BME280;4385;48.848;8.924;2023-11-22T02:04:30;97854.59;;;18.59;100.00
8697;BME280;4385;48.848;8.924;2023-11-22T02:06:56;97854.63;;;18.57;100.00
8697;BME280;4385;48.848;8.924;2023-11-22T02:09:21;97852.97;;;18.56;100.00
8697;BME280;4385;48.848;8.924;2023-11-22T02:11:47;97865.72;;;18.56;100.00
8697;BME280;4385;48.848;8.924;2023-11-22T02:14:14;97864.00;;;18.57;100.00
8697;BME280;4385;48.848;8.924;2023-11-22T02:16:40;97864.78;;;18.61;100.00
8697;BME280;4385;48.848;8.924;2023-11-22T02:19:06;97863.06;;;18.63;100.00
8697;BME280;4385;48.848;8.924;2023-11-22T02:21:32;97867.22;;;18.68;100.00
8697;BME280;4385;48.848;8.924;2023-11-22T02:23:58;97863.72;;;18.73;100.00
8697;BME280;4385;48.848;8.924;2023-11-22T02:26:23;97859.41;;;18.76;100.00
8697;BME280;4385;48.848;8.924;2023-11-22T02:28:50;97860.22;;;18.80;100.00
8697;BME280;4385;48.848;8.924;2023-11-22T02:31:15;97875.47;;;18.85;100.00
8697;BME280;4385;48.848;8.924;2023-11-22T02:33:41;97883.88;;;18.88;100.00
8697;BME280;4385;48.848;8.924;2023-11-22T02:36:07;97883.03;;;18.89;100.00
8697;BME280;4385;48.848;8.924;2023-11-22T02:38:33;97877.06;;;18.90;100.00
8697;BME280;4385;48.848;8.924;2023-11-22T02:41:00;97888.94;;;18.91;100.00
8697;BME280;4385;48.848;8.924;2023-11-22T02:43:25;97886.38;;;18.91;100.00
8697;BME280;4385;48.848;8.924;2023-11-22T02:45:51;97892.38;;;18.90;100.00
8697;BME280;4385;48.848;8.924;2023-11-22T02:48:17;97893.28;;;18.88;100.00
8697;BME280;4385;48.848;8.924;2023-11-22T02:50:43;97902.63;;;18.87;100.00
8697;BME280;4385;48.848;8.924;2023-11-22T02:53:09;97912.03;;;18.85;100.00
8697;BME280;4385;48.848;8.924;2023-11-22T02:55:34;97912.91;;;18.84;100.00
8697;BME280;4385;48.848;8.924;2023-11-22T02:57:59;97913.81;;;18.81;100.00
8697;BME280;4385;48.848;8.924;2023-11-22T03:00:25;97915.53;;;18.79;100.00
8697;BME280;4385;48.848;8.924;2023-11-22T03:02:50;97925.78;;;18.78;100.00
8697;BME280;4385;48.848;8.924;2023-11-22T03:05:20;97927.53;;;18.74;100.00
8697;BME280;4385;48.848;8.924;2023-11-22T03:07:45;97929.28;;;18.72;100.00
8697;BME280;4385;48.848;8.924;2023-11-22T03:10:11;97925.06;;;18.68;100.00
8697;BME280;4385;48.848;8.924;2023-11-22T03:12:36;97937.88;;;18.65;100.00
8697;BME280;4385;48.848;8.924;2023-11-22T03:15:02;97942.22;;;18.61;100.00
8697;BME280;4385;48.848;8.924;2023-11-22T03:17:28;97949.91;;;18.58;100.00
8697;BME280;4385;48.848;8.924;2023-11-22T03:19:55;97948.22;;;18.55;100.00
8697;BME280;4385;48.848;8.924;2023-11-22T03:22:25;97944.91;;;18.52;100.00
8697;BME280;4385;48.848;8.924;2023-11-22T03:24:51;97939.88;;;18.47;100.00
8697;BME280;4385;48.848;8.924;2023-11-22T03:27:16;97934.78;;;18.46;100.00
8697;BME280;4385;48.848;8.924;2023-11-22T03:29:41;97936.53;;;18.42;100.00
8697;BME280;4385;48.848;8.924;2023-11-22T03:32:07;97944.25;;;18.39;100.00
8697;BME280;4385;48.848;8.924;2023-11-22T03:34:32;97942.56;;;18.38;100.00
8697;BME280;4385;48.848;8.924;2023-11-22T03:36:57;97940.84;;;18.37;100.00
8697;BME280;4385;48.848;8.924;2023-11-22T03:39:23;97943.38;;;18.38;100.00
8697;BME280;4385;48.848;8.924;2023-11-22T03:41:48;97949.28;;;18.42;100.00
8697;BME280;4385;48.848;8.924;2023-11-22T03:44:13;97950.09;;;18.47;100.00
8697;BME280;4385;48.848;8.924;2023-11-22T03:46:39;97956.81;;;18.51;100.00
8697;BME280;4385;48.848;8.924;2023-11-22T03:49:05;97960.19;;;18.55;100.00
8697;BME280;4385;48.848;8.924;2023-11-22T03:51:34;97963.50;;;18.59;100.00
8697;BME280;4385;48.848;8.924;2023-11-22T03:53:59;97961.72;;;18.64;100.00
8697;BME280;4385;48.848;8.924;2023-11-22T03:56:25;97969.28;;;18.70;100.00
8697;BME280;4385;48.848;8.924;2023-11-22T03:58:51;97982.88;;;18.74;100.00
8697;BME280;4385;48.848;8.924;2023-11-22T04:01:16;97982.81;;;18.77;100.00
8697;BME280;4385;48.848;8.924;2023-11-22T04:03:42;97987.03;;;18.79;100.00
8697;BME280;4385;48.848;8.924;2023-11-22T04:06:07;97983.56;;;18.82;100.00
8697;BME280;4385;48.848;8.924;2023-11-22T04:08:33;97977.59;;;18.85;100.00
8697;BME280;4385;48.848;8.924;2023-11-22T04:10:58;97989.47;;;18.87;100.00
8697;BME280;4385;48.848;8.924;2023-11-22T04:13:23;97975.00;;;18.88;100.00
8697;BME280;4385;48.848;8.924;2023-11-22T04:15:50;97983.44;;;18.90;100.00
8697;BME280;4385;48.848;8.924;2023-11-22T04:18:15;97982.63;;;18.89;100.00
8697;BME280;4385;48.848;8.924;2023-11-22T04:20:41;97976.66;;;18.89;100.00
8697;BME280;4385;48.848;8.924;2023-11-22T04:23:06;97982.66;;;18.88;100.00
8697;BME280;4385;48.848;8.924;2023-11-22T04:25:31;97986.91;;;18.87;100.00
8697;BME280;4385;48.848;8.924;2023-11-22T04:27:59;97993.72;;;18.87;100.00
8697;BME280;4385;48.848;8.924;2023-11-22T04:30:24;97990.34;;;18.85;100.00
8697;BME280;4385;48.848;8.924;2023-11-22T04:32:50;98003.13;;;18.85;100.00
8697;BME280;4385;48.848;8.924;2023-11-22T04:35:15;97994.63;;;18.84;100.00
8697;BME280;4385;48.848;8.924;2023-11-22T04:37:40;98009.09;;;18.82;100.00
8697;BME280;4385;48.848;8.924;2023-11-22T04:40:06;98015.09;;;18.81;100.00
8697;BME280;4385;48.848;8.924;2023-11-22T04:42:36;98027.00;;;18.80;100.00
8697;BME280;4385;48.848;8.924;2023-11-22T04:45:03;98031.31;;;18.78;100.00
8697;BME280;4385;48.848;8.924;2023-11-22T04:47:28;98027.91;;;18.76;100.00
8697;BME280;4385;48.848;8.924;2023-11-22T04:49:53;98030.50;;;18.75;100.00
8697;BME280;4385;48.848;8.924;2023-11-22T04:52:19;98050.06;;;18.74;100.00
8697;BME280;4385;48.848;8.924;2023-11-22T04:54:44;98050.94;;;18.73;100.00
8697;BME280;4385;48.848;8.924;2023-11-22T04:57:09;98051.81;;;18.72;100.00
8697;BME280;4385;48.848;8.924;2023-11-22T04:59:35;98058.66;;;18.70;100.00
8697;BME280;4385;48.848;8.924;2023-11-22T05:02:00;98058.66;;;18.68;100.00
8697;BME280;4385;48.848;8.924;2023-11-22T05:04:25;98057.81;;;18.68;100.00
8697;BME280;4385;48.848;8.924;2023-11-22T05:06:52;98062.13;;;18.66;100.00
8697;BME280;4385;48.848;8.924;2023-11-22T05:09:17;98056.16;;;18.65;100.00
8697;BME280;4385;48.848;8.924;2023-11-22T05:11:43;98065.53;;;18.63;100.00
8697;BME280;4385;48.848;8.924;2023-11-22T05:14:09;98064.72;;;18.61;100.00
8697;BME280;4385;48.848;8.924;2023-11-22T05:16:35;98069.00;;;18.59;100.00
8697;BME280;4385;48.848;8.924;2023-11-22T05:19:00;98082.66;;;18.56;100.00
8697;BME280;4385;48.848;8.924;2023-11-22T05:21:25;98085.19;;;18.58;100.00
8697;BME280;4385;48.848;8.924;2023-11-22T05:23:51;98083.47;;;18.57;100.00
8697;BME280;4385;48.848;8.924;2023-11-22T05:26:18;98088.63;;;18.54;100.00
8697;BME280;4385;48.848;8.924;2023-11-22T05:28:43;98088.63;;;18.54;100.00
8697;BME280;4385;48.848;8.924;2023-11-22T05:31:08;98084.41;;;18.53;100.00
8697;BME280;4385;48.848;8.924;2023-11-22T05:33:34;98081.84;;;18.53;100.00
8697;BME280;4385;48.848;8.924;2023-11-22T05:35:59;98075.88;;;18.52;100.00
8697;BME280;4385;48.848;8.924;2023-11-22T05:38:24;98075.88;;;18.52;100.00
8697;BME280;4385;48.848;8.924;2023-11-22T05:40:51;98081.00;;;18.51;100.00
8697;BME280;4385;48.848;8.924;2023-11-22T05:43:17;98087.00;;;18.50;100.00
8697;BME280;4385;48.848;8.924;2023-11-22T05:45:42;98087.00;;;18.48;100.00
8697;BME280;4385;48.848;8.924;2023-11-22T05:48:08;98089.59;;;18.47;100.00
8697;BME280;4385;48.848;8.924;2023-11-22T05:50:33;98093.00;;;18.46;100.00
8697;BME280;4385;48.848;8.924;2023-11-22T05:52:58;98093.03;;;18.44;100.00
8697;BME280;4385;48.848;8.924;2023-11-22T05:55:24;98091.31;;;18.43;100.00
8697;BME280;4385;48.848;8.924;2023-11-22T05:57:49;98096.44;;;18.41;100.00
8697;BME280;4385;48.848;8.924;2023-11-22T06:00:14;98102.41;;;18.40;100.00
8697;BME280;4385;48.848;8.924;2023-11-22T06:02:40;98103.25;;;18.42;100.00
8697;BME280;4385;48.848;8.924;2023-11-22T06:05:06;98105.81;;;18.41;100.00
8697;BME280;4385;48.848;8.924;2023-11-22T06:07:32;98119.38;;;18.43;100.00
8697;BME280;4385;48.848;8.924;2023-11-22T06:09:57;98136.44;;;18.42;100.00
8697;BME280;4385;48.848;8.924;2023-11-22T06:12:23;98132.16;;;18.43;100.00
8697;BME280;4385;48.848;8.924;2023-11-22T06:14:48;98140.69;;;18.42;100.00
8697;BME280;4385;48.848;8.924;2023-11-22T06:17:13;98146.63;;;18.42;100.00
8697;BME280;4385;48.848;8.924;2023-11-22T06:19:39;98145.78;;;18.42;100.00
8697;BME280;4385;48.848;8.924;2023-11-22T06:22:06;98143.22;;;18.42;100.00
8697;BME280;4385;48.848;8.924;2023-11-22T06:24:31;98153.44;;;18.42;100.00
8697;BME280;4385;48.848;8.924;2023-11-22T06:26:58;98144.94;;;18.41;100.00
8697;BME280;4385;48.848;8.924;2023-11-22T06:29:24;98159.41;;;18.42;100.00
8697;BME280;4385;48.848;8.924;2023-11-22T06:31:49;98161.09;;;18.42;100.00
8697;BME280;4385;48.848;8.924;2023-11-22T06:34:14;98160.22;;;18.43;100.00
8697;BME280;4385;48.848;8.924;2023-11-22T06:36:40;98163.66;;;18.42;100.00
8697;BME280;4385;48.848;8.924;2023-11-22T06:39:05;98162.78;;;18.43;100.00
8697;BME280;4385;48.848;8.924;2023-11-22T06:41:31;98161.94;;;18.42;100.00
8697;BME280;4385;48.848;8.924;2023-11-22T06:43:56;98164.47;;;18.44;100.00
8697;BME280;4385;48.848;8.924;2023-11-22T06:46:22;98159.41;;;18.42;100.00
8697;BME280;4385;48.848;8.924;2023-11-22T06:48:48;98167.88;;;18.43;100.00
8697;BME280;4385;48.848;8.924;2023-11-22T06:51:14;98172.97;;;18.43;100.00
8697;BME280;4385;48.848;8.924;2023-11-22T06:53:40;98174.72;;;18.42;100.00
8697;BME280;4385;48.848;8.924;2023-11-22T06:56:06;98173.88;;;18.40;100.00
8697;BME280;4385;48.848;8.924;2023-11-22T06:58:31;98183.22;;;18.40;100.00
8697;BME280;4385;48.848;8.924;2023-11-22T07:00:56;98188.34;;;18.38;100.00
8697;BME280;4385;48.848;8.924;2023-11-22T07:03:22;98190.06;;;18.38;100.00
8697;BME280;4385;48.848;8.924;2023-11-22T07:05:47;98195.16;;;18.38;100.00
8697;BME280;4385;48.848;8.924;2023-11-22T07:08:12;98190.91;;;18.37;100.00
8697;BME280;4385;48.848;8.924;2023-11-22T07:10:38;98188.38;;;18.35;100.00
8697;BME280;4385;48.848;8.924;2023-11-22T07:13:03;98195.19;;;18.35;100.00
8697;BME280;4385;48.848;8.924;2023-11-22T07:15:28;98196.03;;;18.35;100.00
8697;BME280;4385;48.848;8.924;2023-11-22T07:17:54;98210.50;;;18.36;100.00
8697;BME280;4385;48.848;8.924;2023-11-22T07:20:20;98217.25;;;18.39;100.00
8697;BME280;4385;48.848;8.924;2023-11-22T07:22:45;98218.13;;;18.39;100.00
8697;BME280;4385;48.848;8.924;2023-11-22T07:25:11;98221.47;;;18.41;100.00
8697;BME280;4385;48.848;8.924;2023-11-22T07:27:49;98219.75;;;18.43;100.00
8697;BME280;4385;48.848;8.924;2023-11-22T07:30:14;98229.97;;;18.45;100.00
8697;BME280;4385;48.848;8.924;2023-11-22T07:32:40;98241.00;;;18.47;100.00
8697;BME280;4385;48.848;8.924;2023-11-22T07:35:06;98240.97;;;18.50;100.00
8697;BME280;4385;48.848;8.924;2023-11-22T07:37:34;98251.19;;;18.50;100.00
8697;BME280;4385;48.848;8.924;2023-11-22T07:40:00;98257.09;;;18.52;100.00
8697;BME280;4385;48.848;8.924;2023-11-22T07:42:28;98264.72;;;18.55;100.00
8697;BME280;4385;48.848;8.924;2023-11-22T07:44:53;98265.56;;;18.57;100.00
8697;BME280;4385;48.848;8.924;2023-11-22T07:47:24;98260.44;;;18.61;100.00
8697;BME280;4385;48.848;8.924;2023-11-22T07:49:52;98256.16;;;18.64;100.00
8697;BME280;4385;48.848;8.924;2023-11-22T07:52:17;98268.00;;;18.70;100.00
8697;BME280;4385;48.848;8.924;2023-11-22T07:54:42;98248.41;;;18.72;100.00
8697;BME280;4385;48.848;8.924;2023-11-22T07:57:09;98258.56;;;18.77;100.00
8697;BME280;4385;48.848;8.924;2023-11-22T07:59:35;98249.13;;;18.82;100.00
8697;BME280;4385;48.848;8.924;2023-11-22T08:02:02;98254.19;;;18.85;100.00
8697;BME280;4385;48.848;8.924;2023-11-22T08:04:27;98249.03;;;18.90;100.00
8697;BME280;4385;48.848;8.924;2023-11-22T08:06:53;98254.97;;;18.92;100.00
8697;BME280;4385;48.848;8.924;2023-11-22T08:09:22;98260.91;;;18.94;100.00
8697;BME280;4385;48.848;8.924;2023-11-22T08:11:48;98257.50;;;18.95;100.00
8697;BME280;4385;48.848;8.924;2023-11-22T08:14:13;98257.47;;;18.98;100.00
8697;BME280;4385;48.848;8.924;2023-11-22T08:16:39;98255.75;;;19.00;100.00
8697;BME280;4385;48.848;8.924;2023-11-22T08:19:08;98254.88;;;19.00;100.00
8697;BME280;4385;48.848;8.924;2023-11-22T08:21:33;98256.53;;;19.04;100.00
8697;BME280;4385;48.848;8.924;2023-11-22T08:23:59;98264.16;;;19.05;100.00
8697;BME280;4385;48.848;8.924;2023-11-22T08:26:25;98262.44;;;19.07;100.00
8697;BME280;4385;48.848;8.924;2023-11-22T08:28:51;98255.66;;;19.10;100.00
8697;BME280;4385;48.848;8.924;2023-11-22T08:31:16;98262.41;;;19.14;100.00
8697;BME280;4385;48.848;8.924;2023-11-22T08:33:42;98258.97;;;19.16;100.00
8697;BME280;4385;48.848;8.924;2023-11-22T08:36:08;98257.22;;;19.20;100.00
8697;BME280;4385;48.848;8.924;2023-11-22T08:38:34;98251.22;;;19.23;100.00
8697;BME280;4385;48.848;8.924;2023-11-22T08:41:04;98264.81;;;19.25;100.00
8697;BME280;4385;48.848;8.924;2023-11-22T08:43:31;98268.22;;;19.27;100.00
8697;BME280;4385;48.848;8.924;2023-11-22T08:45:57;98266.47;;;19.27;100.00
8697;BME280;4385;48.848;8.924;2023-11-22T08:48:23;98272.44;;;19.28;100.00
8697;BME280;4385;48.848;8.924;2023-11-22T08:50:48;98275.84;;;19.28;100.00
8697;BME280;4385;48.848;8.924;2023-11-22T08:53:15;98280.94;;;19.30;100.00
8697;BME280;4385;48.848;8.924;2023-11-22T08:55:42;98271.56;;;19.29;100.00
8697;BME280;4385;48.848;8.924;2023-11-22T08:58:10;98278.41;;;19.30;100.00
8697;BME280;4385;48.848;8.924;2023-11-22T09:00:35;98280.94;;;19.31;100.00
8697;BME280;4385;48.848;8.924;2023-11-22T09:03:00;98282.63;;;19.33;100.00
8697;BME280;4385;48.848;8.924;2023-11-22T09:05:26;98274.94;;;19.33;100.00
8697;BME280;4385;48.848;8.924;2023-11-22T09:07:52;98260.50;;;19.30;100.00
8697;BME280;4385;48.848;8.924;2023-11-22T09:10:18;98264.75;;;19.29;100.00
8697;BME280;4385;48.848;8.924;2023-11-22T09:12:46;98263.09;;;19.28;100.00
8697;BME280;4385;48.848;8.924;2023-11-22T09:15:13;98265.63;;;19.28;100.00
8697;BME280;4385;48.848;8.924;2023-11-22T09:17:42;98260.53;;;19.28;100.00
8697;BME280;4385;48.848;8.924;2023-11-22T09:20:14;98266.47;;;19.29;100.00
8697;BME280;4385;48.848;8.924;2023-11-22T09:22:43;98263.09;;;19.28;100.00
8697;BME280;4385;48.848;8.924;2023-11-22T09:25:13;98261.38;;;19.27;100.00
8697;BME280;4385;48.848;8.924;2023-11-22T09:27:38;98262.25;;;19.26;100.00
8697;BME280;4385;48.848;8.924;2023-11-22T09:30:06;98274.16;;;19.26;100.00
8697;BME280;4385;48.848;8.924;2023-11-22T09:32:31;98276.72;;;19.26;100.00
8697;BME280;4385;48.848;8.924;2023-11-22T09:34:56;98281.84;;;19.26;100.00
8697;BME280;4385;48.848;8.924;2023-11-22T09:37:23;98281.00;;;19.25;100.00
8697;BME280;4385;48.848;8.924;2023-11-22T09:39:48;98286.94;;;19.26;100.00
8697;BME280;4385;48.848;8.924;2023-11-22T09:42:15;98281.84;;;19.26;100.00
8697;BME280;4385;48.848;8.924;2023-11-22T09:44:40;98292.03;;;19.27;100.00
8697;BME280;4385;48.848;8.924;2023-11-22T09:47:06;98290.34;;;19.28;100.00
8697;BME280;4385;48.848;8.924;2023-11-22T09:49:32;98298.84;;;19.28;100.00
8697;BME280;4385;48.848;8.924;2023-11-22T09:52:01;98301.41;;;19.30;100.00
8697;BME280;4385;48.848;8.924;2023-11-22T09:54:28;98300.53;;;19.31;100.00
8697;BME280;4385;48.848;8.924;2023-11-22T09:56:59;98303.06;;;19.31;100.00
8697;BME280;4385;48.848;8.924;2023-11-22T09:59:27;98311.59;;;19.31;100.00
8697;BME280;4385;48.848;8.924;2023-11-22T10:01:52;98315.00;;;19.30;100.00
8697;BME280;4385;48.848;8.924;2023-11-22T10:04:19;98313.28;;;19.33;100.00
8697;BME280;4385;48.848;8.924;2023-11-22T10:06:45;98312.44;;;19.30;100.00
8697;BME280;4385;48.848;8.924;2023-11-22T10:09:11;98317.53;;;19.32;100.00
8697;BME280;4385;48.848;8.924;2023-11-22T10:11:39;98327.75;;;19.32;100.00
8697;BME280;4385;48.848;8.924;2023-11-22T10:14:08;98323.50;;;19.33;100.00
8697;BME280;4385;48.848;8.924;2023-11-22T10:16:34;98332.88;;;19.32;100.00
8697;BME280;4385;48.848;8.924;2023-11-22T10:18:59;98332.03;;;19.33;100.00
8697;BME280;4385;48.848;8.924;2023-11-22T10:21:26;98323.50;;;19.33;100.00
8697;BME280;4385;48.848;8.924;2023-11-22T10:23:56;98314.16;;;19.30;100.00
8697;BME280;4385;48.848;8.924;2023-11-22T10:26:22;98313.31;;;19.29;100.00
8697;BME280;4385;48.848;8.924;2023-11-22T10:28:50;98317.56;;;19.30;100.00
8697;BME280;4385;48.848;8.924;2023-11-22T10:31:16;98319.31;;;19.28;100.00
8697;BME280;4385;48.848;8.924;2023-11-22T10:33:42;98320.97;;;19.29;100.00
8697;BME280;4385;48.848;8.924;2023-11-22T10:36:08;98321.84;;;19.28;100.00
8697;BME280;4385;48.848;8.924;2023-11-22T10:38:34;98316.75;;;19.28;100.00
8697;BME280;4385;48.848;8.924;2023-11-22T10:41:04;98309.91;;;19.27;100.00
8697;BME280;4385;48.848;8.924;2023-11-22T10:43:30;98309.91;;;19.27;100.00
8697;BME280;4385;48.848;8.924;2023-11-22T10:45:58;98307.38;;;19.27;100.00
8697;BME280;4385;48.848;8.924;2023-11-22T10:48:24;98314.22;;;19.25;100.00
8697;BME280;4385;48.848;8.924;2023-11-22T10:50:53;98320.19;;;19.23;100.00
8697;BME280;4385;48.848;8.924;2023-11-22T10:53:33;98321.94;;;19.22;100.00
8697;BME280;4385;48.848;8.924;2023-11-22T10:56:07;98338.09;;;19.21;100.00
8697;BME280;4385;48.848;8.924;2023-11-22T10:58:42;98356.00;;;19.21;100.00
8697;BME280;4385;48.848;8.924;2023-11-22T11:01:11;98365.38;;;19.21;100.00
8697;BME280;4385;48.848;8.924;2023-11-22T11:03:39;98362.00;;;19.18;100.00
8697;BME280;4385;48.848;8.924;2023-11-22T11:06:08;98360.28;;;19.19;100.00
8697;BME280;4385;48.848;8.924;2023-11-22T11:08:37;98356.03;;;19.18;100.00
8697;BME280;4385;48.848;8.924;2023-11-22T11:11:04;98361.13;;;19.18;100.00
8697;BME280;4385;48.848;8.924;2023-11-22T11:13:31;98367.09;;;19.18;100.00
8697;BME280;4385;48.848;8.924;2023-11-22T11:15:57;98367.97;;;19.17;100.00
8697;BME280;4385;48.848;8.924;2023-11-22T11:18:23;98367.97;;;19.19;100.00
8697;BME280;4385;48.848;8.924;2023-11-22T11:20:53;98356.88;;;19.20;100.00
8697;BME280;4385;48.848;8.924;2023-11-22T11:23:27;98355.16;;;19.21;100.00
8697;BME280;4385;48.848;8.924;2023-11-22T11:25:53;98369.59;;;19.23;100.00
8697;BME280;4385;48.848;8.924;2023-11-22T11:28:19;98374.72;;;19.23;100.00
8697;BME280;4385;48.848;8.924;2023-11-22T11:30:49;98367.06;;;19.23;100.00
8697;BME280;4385;48.848;8.924;2023-11-22T11:33:17;98378.13;;;19.25;100.00
8697;BME280;4385;48.848;8.924;2023-11-22T11:35:46;98367.88;;;19.25;100.00
8697;BME280;4385;48.848;8.924;2023-11-22T11:38:19;98367.88;;;19.25;100.00
8697;BME280;4385;48.848;8.924;2023-11-22T11:40:48;98367.00;;;19.26;100.00
8697;BME280;4385;48.848;8.924;2023-11-22T11:43:14;98365.31;;;19.27;100.00
8697;BME280;4385;48.848;8.924;2023-11-22T11:45:41;98375.56;;;19.25;100.00
8697;BME280;4385;48.848;8.924;2023-11-22T11:48:12;98383.22;;;19.25;100.00
8697;BME280;4385;48.848;8.924;2023-11-22T11:50:37;98383.22;;;19.25;100.00
8697;BME280;4385;48.848;8.924;2023-11-22T11:53:02;98387.47;;;19.26;100.00
8697;BME280;4385;48.848;8.924;2023-11-22T11:55:29;98389.19;;;19.24;100.00
8697;BME280;4385;48.848;8.924;2023-11-22T11:57:55;98394.31;;;19.23;100.00
8697;BME280;4385;48.848;8.924;2023-11-22T12:00:22;98382.41;;;19.22;100.00
8697;BME280;4385;48.848;8.924;2023-11-22T12:02:49;98388.38;;;19.21;100.00
8697;BME280;4385;48.848;8.924;2023-11-22T12:05:15;98387.53;;;19.18;100.00
8697;BME280;4385;48.848;8.924;2023-11-22T12:07:40;98401.19;;;19.19;100.00
8697;BME280;4385;48.848;8.924;2023-11-22T12:10:06;98408.84;;;19.19;100.00
8697;BME280;4385;48.848;8.924;2023-11-22T12:12:32;98416.50;;;19.21;100.00
8697;BME280;4385;48.848;8.924;2023-11-22T12:14:58;98402.84;;;19.22;100.00
8697;BME280;4385;48.848;8.924;2023-11-22T12:17:25;98391.75;;;19.21;100.00
8697;BME280;4385;48.848;8.924;2023-11-22T12:19:51;98414.75;;;19.21;100.00
8697;BME280;4385;48.848;8.924;2023-11-22T12:22:16;98413.91;;;19.22;100.00
8697;BME280;4385;48.848;8.924;2023-11-22T12:24:42;98425.81;;;19.23;100.00
8697;BME280;4385;48.848;8.924;2023-11-22T12:27:10;98427.50;;;19.24;100.00
8697;BME280;4385;48.848;8.924;2023-11-22T12:29:36;98419.81;;;19.26;100.00
8697;BME280;4385;48.848;8.924;2023-11-22T12:32:02;98427.47;;;19.27;100.00
8697;BME280;4385;48.848;8.924;2023-11-22T12:34:27;98430.03;;;19.27;100.00
8697;BME280;4385;48.848;8.924;2023-11-22T12:36:55;98429.19;;;19.28;100.00
8697;BME280;4385;48.848;8.924;2023-11-22T12:39:20;98427.44;;;19.29;100.00
8697;BME280;4385;48.848;8.924;2023-11-22T12:41:50;98425.75;;;19.29;100.00
8697;BME280;4385;48.848;8.924;2023-11-22T12:44:16;98418.09;;;19.29;100.00
8697;BME280;4385;48.848;8.924;2023-11-22T12:49:10;98412.09;;;19.30;100.00
8697;BME280;4385;48.848;8.924;2023-11-22T12:51:36;98407.88;;;19.29;100.00
8697;BME280;4385;48.848;8.924;2023-11-22T12:54:01;98410.44;;;19.29;100.00
8697;BME280;4385;48.848;8.924;2023-11-22T12:56:26;98405.31;;;19.29;100.00
8697;BME280;4385;48.848;8.924;2023-11-22T12:58:53;98395.09;;;19.29;100.00
8697;BME280;4385;48.848;8.924;2023-11-22T13:01:18;98396.78;;;19.30;100.00
8697;BME280;4385;48.848;8.924;2023-11-22T13:03:45;98393.38;;;19.31;100.00
8697;BME280;4385;48.848;8.924;2023-11-22T13:06:10;98389.94;;;19.33;100.00